Weather Station Data

Station Data Captured at Five Minute Intervals Since Midnight Local Time


Date Time Temp. RH % Dew Pt. Wind Speed Wind Dir. Peak Wind Wind Chill Pressure Precip. Solar W/m2 ET
2/26/24 10:15p 61.6 57 46.2 3.0 SE 8.0 61.6 29.757 0.00 0 0.000
2/26/24 10:10p 61.6 57 46.2 3.0 SSE 8.0 61.6 29.757 0.00 0 0.000
2/26/24 10:05p 61.8 56 45.9 3.0 SSE 5.0 61.8 29.754 0.00 0 0.000
2/26/24 10:00p 62.1 55 45.7 3.0 ESE 6.0 62.1 29.752 0.00 0 0.002
2/26/24 9:55p 62.3 55 45.9 3.0 SE 7.0 62.3 29.754 0.00 0 0.000
2/26/24 9:50p 62.4 55 46.0 3.0 SE 7.0 62.4 29.753 0.00 0 0.000
2/26/24 9:45p 62.3 55 45.9 3.0 SE 7.0 62.3 29.753 0.00 0 0.000
2/26/24 9:40p 62.4 55 46.0 3.0 SSE 6.0 62.4 29.755 0.00 0 0.000
2/26/24 9:35p 62.5 54 45.6 3.0 SE 9.0 62.5 29.755 0.00 0 0.000
2/26/24 9:30p 62.7 54 45.8 3.0 SE 8.0 62.7 29.758 0.00 0 0.000
2/26/24 9:25p 62.8 53 45.4 3.0 SSE 7.0 62.8 29.758 0.00 0 0.000
2/26/24 9:20p 62.9 53 45.5 3.0 SE 6.0 62.9 29.758 0.00 0 0.000
2/26/24 9:15p 63.0 52 45.1 4.0 SE 8.0 63.0 29.756 0.00 0 0.000
2/26/24 9:10p 63.0 52 45.1 3.0 SE 5.0 63.0 29.756 0.00 0 0.000
2/26/24 9:05p 63.0 52 45.1 3.0 SSE 10.0 63.0 29.758 0.00 0 0.000
2/26/24 9:00p 63.0 52 45.1 4.0 SSE 12.0 63.0 29.761 0.00 0 0.002
2/26/24 8:55p 62.7 51 44.3 3.0 SE 7.0 62.7 29.763 0.00 0 0.000
2/26/24 8:50p 62.7 51 44.3 3.0 SE 7.0 62.7 29.767 0.00 0 0.000
2/26/24 8:45p 62.5 50 43.6 3.0 SE 7.0 62.5 29.768 0.00 0 0.000
2/26/24 8:40p 62.3 50 43.4 3.0 SE 5.0 62.3 29.768 0.00 0 0.000
2/26/24 8:35p 62.1 50 43.2 2.0 ESE 3.0 62.1 29.767 0.00 0 0.000
2/26/24 8:30p 62.2 49 42.8 1.0 ESE 3.0 62.2 29.770 0.00 0 0.000
2/26/24 8:25p 62.4 49 43.0 2.0 ESE 4.0 62.4 29.772 0.00 0 0.000
2/26/24 8:20p 62.4 49 43.0 2.0 ESE 4.0 62.4 29.772 0.00 0 0.000
2/26/24 8:15p 62.5 48 42.5 2.0 SE 3.0 62.5 29.777 0.00 0 0.000
2/26/24 8:10p 62.8 48 42.8 2.0 ESE 4.0 62.8 29.778 0.00 0 0.000
2/26/24 8:05p 62.9 48 42.9 2.0 ESE 4.0 62.9 29.777 0.00 0 0.000
2/26/24 8:00p 63.0 47 42.4 2.0 ESE 4.0 63.0 29.776 0.00 0 0.002
2/26/24 7:55p 63.1 47 42.5 2.0 ESE 3.0 63.1 29.773 0.00 0 0.000
2/26/24 7:50p 63.2 46 42.1 2.0 ESE 6.0 63.2 29.772 0.00 0 0.000
2/26/24 7:45p 63.2 46 42.1 2.0 SE 4.0 63.2 29.773 0.00 0 0.000
2/26/24 7:40p 63.1 47 42.5 2.0 SE 3.0 63.1 29.777 0.00 0 0.000
2/26/24 7:35p 63.2 47 42.6 2.0 SE 3.0 63.2 29.781 0.00 0 0.000
2/26/24 7:30p 63.2 47 42.6 2.0 SE 4.0 63.2 29.780 0.00 0 0.000
2/26/24 7:25p 63.3 47 42.7 1.0 S 2.0 63.3 29.782 0.00 0 0.000
2/26/24 7:20p 63.4 47 42.8 1.0 S 2.0 63.4 29.783 0.00 0 0.000
2/26/24 7:15p 63.5 47 42.9 1.0 S 2.0 63.5 29.786 0.00 0 0.000
2/26/24 7:10p 63.8 47 43.2 1.0 S 2.0 63.8 29.787 0.00 0 0.000
2/26/24 7:05p 64.0 47 43.4 1.0 S 2.0 64.0 29.789 0.00 0 0.000
2/26/24 7:00p 64.3 47 43.6 1.0 S 2.0 64.3 29.791 0.00 0 0.001
2/26/24 6:55p 64.7 46 43.4 1.0 S 2.0 64.7 29.793 0.00 0 0.000
2/26/24 6:50p 64.9 46 43.6 1.0 S 2.0 64.9 29.792 0.00 0 0.000
2/26/24 6:45p 65.2 46 43.9 1.0 S 2.0 65.2 29.796 0.00 0 0.000
2/26/24 6:40p 65.4 45 43.5 1.0 SSE 4.0 65.4 29.794 0.00 0 0.000
2/26/24 6:35p 65.8 45 43.9 1.0 SSE 1.0 65.8 29.792 0.00 0 0.000
2/26/24 6:30p 66.0 45 44.0 1.0 SSE 2.0 66.0 29.792 0.00 0 0.000
2/26/24 6:25p 66.4 45 44.4 1.0 SSE 4.0 66.4 29.789 0.00 2 0.000
2/26/24 6:20p 66.7 44 44.1 1.0 SSE 2.0 66.7 29.787 0.00 7 0.000
2/26/24 6:15p 67.0 44 44.4 1.0 SSE 2.0 67.0 29.785 0.00 11 0.000
2/26/24 6:10p 67.2 44 44.5 2.0 SSE 6.0 67.2 29.787 0.00 13 0.000
2/26/24 6:05p 67.5 44 44.8 3.0 S 7.0 67.5 29.788 0.00 18 0.000
2/26/24 6:00p 67.7 44 45.0 4.0 SSE 8.0 67.7 29.791 0.00 23 0.003
2/26/24 5:55p 68.0 44 45.3 5.0 SSE 12.0 68.0 29.794 0.00 26 0.000
2/26/24 5:50p 68.1 43 44.7 3.0 S 5.0 68.1 29.794 0.00 28 0.000
2/26/24 5:45p 68.2 44 45.4 3.0 SSE 7.0 68.2 29.797 0.00 31 0.000
2/26/24 5:40p 68.2 45 46.0 3.0 SSE 7.0 68.2 29.798 0.00 34 0.000
2/26/24 5:35p 68.4 44 45.6 4.0 SSE 8.0 68.4 29.798 0.00 37 0.000
2/26/24 5:30p 68.6 43 45.2 5.0 SSE 10.0 68.6 29.798 0.00 44 0.000
2/26/24 5:25p 68.8 43 45.4 4.0 SSE 9.0 68.8 29.800 0.00 49 0.000
2/26/24 5:20p 69.0 43 45.6 4.0 SSE 10.0 69.0 29.799 0.00 58 0.000
2/26/24 5:15p 69.1 43 45.7 3.0 SSE 7.0 69.1 29.799 0.00 54 0.000
2/26/24 5:10p 69.3 44 46.4 3.0 SE 7.0 69.3 29.802 0.00 68 0.000
2/26/24 5:05p 69.4 43 45.9 5.0 S 9.0 69.4 29.804 0.00 83 0.000
2/26/24 5:00p 69.6 42 45.5 5.0 S 9.0 69.6 29.806 0.00 114 0.008
2/26/24 4:55p 69.5 44 46.6 3.0 S 6.0 69.5 29.808 0.00 134 0.000
2/26/24 4:50p 69.4 43 45.9 4.0 SSE 8.0 69.4 29.810 0.00 148 0.000
2/26/24 4:45p 69.5 43 46.0 5.0 SSE 9.0 69.5 29.812 0.00 199 0.000
2/26/24 4:40p 69.5 41 44.8 4.0 SSW 9.0 69.5 29.815 0.00 224 0.000
2/26/24 4:35p 69.5 43 46.0 6.0 SSW 11.0 69.5 29.817 0.00 177 0.000
2/26/24 4:30p 69.7 43 46.2 4.0 S 8.0 69.7 29.814 0.00 201 0.000
2/26/24 4:25p 69.6 42 45.5 5.0 SSW 9.0 69.6 29.815 0.00 195 0.000
2/26/24 4:20p 69.7 42 45.6 5.0 SSE 11.0 69.7 29.818 0.00 260 0.000
2/26/24 4:15p 70.0 42 45.8 5.0 S 10.0 70.0 29.818 0.00 308 0.000
2/26/24 4:10p 70.1 41 45.3 6.0 S 10.0 70.1 29.818 0.00 331 0.000
2/26/24 4:05p 70.5 41 45.7 4.0 SSW 8.0 70.5 29.819 0.00 373 0.000
2/26/24 4:00p 70.5 41 45.7 4.0 SSE 7.0 70.5 29.819 0.00 416 0.014
2/26/24 3:55p 70.0 41 45.2 7.0 S 13.0 70.0 29.823 0.00 426 0.000
2/26/24 3:50p 70.0 41 45.2 5.0 SSE 8.0 70.0 29.822 0.00 442 0.000
2/26/24 3:45p 70.2 40 44.7 5.0 S 10.0 70.2 29.826 0.00 451 0.000
2/26/24 3:40p 70.2 43 46.6 5.0 SSW 9.0 70.2 29.827 0.00 466 0.000
2/26/24 3:35p 69.9 43 46.4 5.0 S 8.0 69.9 29.827 0.00 475 0.000
2/26/24 3:30p 69.9 44 47.0 6.0 S 9.0 69.9 29.828 0.00 484 0.000
2/26/24 3:25p 69.7 42 45.6 5.0 S 10.0 69.7 29.833 0.00 500 0.000
2/26/24 3:20p 70.0 42 45.8 5.0 SSE 10.0 70.0 29.831 0.00 507 0.000
2/26/24 3:15p 69.8 43 46.3 4.0 SSW 7.0 69.8 29.830 0.00 529 0.000
2/26/24 3:10p 69.5 43 46.0 5.0 SSW 10.0 69.5 29.833 0.00 518 0.000
2/26/24 3:05p 69.7 42 45.6 6.0 SSE 11.0 69.7 29.832 0.00 548 0.000
2/26/24 3:00p 69.7 43 46.2 5.0 SSW 10.0 69.7 29.838 0.00 560 0.016
2/26/24 2:55p 69.6 43 46.1 5.0 SSW 10.0 69.6 29.839 0.00 571 0.000
2/26/24 2:50p 69.7 44 46.8 4.0 SSE 8.0 69.7 29.840 0.00 565 0.000
2/26/24 2:45p 69.5 46 47.8 3.0 SSE 6.0 69.5 29.839 0.00 571 0.000
2/26/24 2:40p 69.1 44 46.3 3.0 SSW 7.0 69.1 29.842 0.00 598 0.000
2/26/24 2:35p 68.7 45 46.5 5.0 SSW 10.0 68.7 29.844 0.00 602 0.000
2/26/24 2:30p 68.5 45 46.3 5.0 S 10.0 68.5 29.849 0.00 611 0.000
2/26/24 2:25p 68.4 45 46.2 6.0 SSW 11.0 68.4 29.852 0.00 619 0.000
2/26/24 2:20p 68.6 46 47.0 4.0 SSW 9.0 68.6 29.855 0.00 626 0.000
2/26/24 2:15p 68.1 46 46.5 4.0 SSW 9.0 68.1 29.857 0.00 634 0.000
2/26/24 2:10p 67.9 45 45.8 6.0 SSE 11.0 67.9 29.858 0.00 640 0.000
2/26/24 2:05p 68.6 45 46.4 5.0 SSE 11.0 68.6 29.861 0.00 640 0.000
2/26/24 2:00p 68.9 50 49.5 3.0 SSW 7.0 68.9 29.865 0.00 649 0.017
2/26/24 1:55p 68.5 48 48.0 4.0 WSW 9.0 68.5 29.870 0.00 655 0.000
2/26/24 1:50p 68.2 50 48.8 4.0 SSW 9.0 68.2 29.872 0.00 659 0.000
2/26/24 1:45p 67.6 50 48.3 4.0 SSW 7.0 67.6 29.873 0.00 662 0.000
2/26/24 1:40p 67.2 49 47.4 3.0 S 9.0 67.2 29.878 0.00 662 0.000
2/26/24 1:35p 66.7 49 46.9 2.0 W 8.0 66.7 29.877 0.00 666 0.000
2/26/24 1:30p 66.3 51 47.6 5.0 SSW 9.0 66.3 29.881 0.00 670 0.000
2/26/24 1:25p 66.4 51 47.7 4.0 SSW 7.0 66.4 29.879 0.00 673 0.000
2/26/24 1:20p 66.3 51 47.6 4.0 SSE 10.0 66.3 29.882 0.00 674 0.000
2/26/24 1:15p 65.9 53 48.3 3.0 SSE 10.0 65.9 29.884 0.00 677 0.000
2/26/24 1:10p 65.5 52 47.4 3.0 S 6.0 65.5 29.886 0.00 678 0.000
2/26/24 1:05p 64.9 52 46.8 3.0 SSW 8.0 64.9 29.890 0.00 679 0.000
2/26/24 1:00p 64.4 52 46.4 4.0 SSW 7.0 64.4 29.892 0.00 679 0.016
2/26/24 12:55p 64.1 53 46.6 5.0 S 10.0 64.1 29.895 0.00 679 0.000
2/26/24 12:50p 64.0 53 46.5 5.0 S 11.0 64.0 29.897 0.00 680 0.000
2/26/24 12:45p 64.1 52 46.1 5.0 S 9.0 64.1 29.899 0.00 680 0.000
2/26/24 12:40p 63.9 52 45.9 4.0 S 6.0 63.9 29.900 0.00 680 0.000
2/26/24 12:35p 63.6 56 47.6 2.0 SSE 6.0 63.6 29.902 0.00 678 0.000
2/26/24 12:30p 63.2 53 45.8 3.0 S 7.0 63.2 29.906 0.00 674 0.000
2/26/24 12:25p 62.8 54 45.9 4.0 SSE 7.0 62.8 29.909 0.00 671 0.000
2/26/24 12:20p 62.9 54 46.0 4.0 SSE 8.0 62.9 29.910 0.00 668 0.000
2/26/24 12:15p 62.7 54 45.8 3.0 S 7.0 62.7 29.911 0.00 665 0.000
2/26/24 12:10p 62.6 55 46.2 3.0 SE 6.0 62.6 29.914 0.00 661 0.000
2/26/24 12:05p 62.4 54 45.5 4.0 SSE 7.0 62.4 29.916 0.00 656 0.000
2/26/24 12:00p 62.0 55 45.6 3.0 SSW 5.0 62.0 29.914 0.00 651 0.014
2/26/24 11:55a 61.4 55 45.1 3.0 SSE 5.0 61.4 29.917 0.00 645 0.000
2/26/24 11:50a 61.1 54 44.3 3.0 S 6.0 61.1 29.916 0.00 638 0.000
2/26/24 11:45a 60.8 57 45.5 2.0 S 4.0 60.8 29.917 0.00 630 0.000
2/26/24 11:40a 60.1 57 44.8 3.0 S 11.0 60.1 29.917 0.00 622 0.000
2/26/24 11:35a 59.7 57 44.4 4.0 S 9.0 59.7 29.919 0.00 614 0.000
2/26/24 11:30a 59.4 57 44.2 5.0 SSW 7.0 59.3 29.920 0.00 607 0.000
2/26/24 11:25a 59.3 57 44.1 4.0 SSE 8.0 59.3 29.922 0.00 600 0.000
2/26/24 11:20a 59.0 57 43.8 4.0 S 8.0 59.0 29.920 0.00 593 0.000
2/26/24 11:15a 58.7 59 44.4 4.0 S 7.0 58.7 29.920 0.00 584 0.000
2/26/24 11:10a 58.3 58 43.6 5.0 SSW 8.0 58.0 29.918 0.00 574 0.000
2/26/24 11:05a 58.2 56 42.6 6.0 SSW 10.0 57.4 29.918 0.00 549 0.000
2/26/24 11:00a 58.6 58 43.9 4.0 S 7.0 58.6 29.919 0.00 532 0.008
2/26/24 10:55a 58.0 57 42.8 3.0 SSW 8.0 58.0 29.921 0.00 454 0.000
2/26/24 10:50a 57.6 57 42.5 4.0 S 8.0 57.6 29.922 0.00 452 0.000
2/26/24 10:45a 57.3 60 43.5 4.0 SSE 8.0 57.3 29.922 0.00 287 0.000
2/26/24 10:40a 56.9 59 42.7 5.0 S 10.0 56.3 29.920 0.00 224 0.000
2/26/24 10:35a 56.4 58 41.8 6.0 S 10.0 55.3 29.919 0.00 243 0.000
2/26/24 10:30a 56.3 59 42.1 6.0 SSE 10.0 55.2 29.919 0.00 303 0.000
2/26/24 10:25a 56.3 59 42.1 5.0 SSE 8.0 55.6 29.920 0.00 234 0.000
2/26/24 10:20a 55.9 60 42.2 4.0 SSE 7.0 55.7 29.922 0.00 262 0.000
2/26/24 10:15a 55.4 61 42.2 6.0 S 12.0 54.1 29.922 0.00 275 0.000
2/26/24 10:10a 55.1 62 42.3 5.0 SSE 11.0 54.2 29.922 0.00 274 0.000
2/26/24 10:05a 54.7 62 41.9 6.0 S 12.0 53.2 29.920 0.00 184 0.000
2/26/24 10:00a 54.1 63 41.8 5.0 SSE 9.0 53.0 29.918 0.00 182 0.005
2/26/24 9:55a 53.6 64 41.7 4.0 SSE 8.0 53.0 29.919 0.00 101 0.000
2/26/24 9:50a 53.1 65 41.6 4.0 S 10.0 52.4 29.920 0.00 163 0.000
2/26/24 9:45a 52.7 65 41.3 5.0 SSE 12.0 51.4 29.920 0.00 183 0.000
2/26/24 9:40a 52.5 66 41.5 3.0 SSE 8.0 52.5 29.922 0.00 145 0.000
2/26/24 9:35a 52.2 66 41.2 4.0 S 9.0 51.4 29.922 0.00 226 0.000
2/26/24 9:30a 51.9 67 41.3 4.0 SSE 7.0 51.1 29.922 0.00 218 0.000
2/26/24 9:25a 51.5 68 41.3 3.0 S 7.0 51.4 29.922 0.00 259 0.000
2/26/24 9:20a 51.2 67 40.6 4.0 S 8.0 50.2 29.922 0.00 186 0.000
2/26/24 9:15a 50.9 68 40.7 2.0 SSE 5.0 50.9 29.923 0.00 202 0.000
2/26/24 9:10a 50.6 69 40.8 3.0 SSE 6.0 50.4 29.924 0.00 232 0.000
2/26/24 9:05a 50.3 69 40.5 2.0 SSE 5.0 50.3 29.924 0.00 213 0.000
2/26/24 9:00a 49.6 71 40.6 2.0 S 5.0 49.6 29.927 0.00 135 0.001
2/26/24 8:55a 48.7 72 40.1 1.0 E 4.0 48.7 29.925 0.00 95 0.000
2/26/24 8:50a 47.6 73 39.4 1.0 E 2.0 47.6 29.924 0.00 118 0.000
2/26/24 8:45a 46.3 74 38.5 1.0 E 2.0 46.3 29.923 0.00 83 0.000
2/26/24 8:40a 45.4 74 37.6 1.0 E 3.0 45.4 29.924 0.00 81 0.000
2/26/24 8:35a 44.7 75 37.3 1.0 E 2.0 44.7 29.926 0.00 42 0.000
2/26/24 8:30a 44.0 75 36.6 1.0 E 2.0 44.0 29.924 0.00 48 0.000
2/26/24 8:25a 43.5 76 36.4 1.0 ESE 2.0 43.5 29.923 0.00 35 0.000
2/26/24 8:20a 43.1 76 36.0 1.0 ESE 2.0 43.1 29.923 0.00 36 0.000
2/26/24 8:15a 42.6 76 35.6 1.0 ESE 2.0 42.6 29.922 0.00 37 0.000
2/26/24 8:10a 42.3 77 35.6 1.0 ESE 2.0 42.3 29.922 0.00 35 0.000
2/26/24 8:05a 42.0 77 35.3 1.0 ESE 2.0 42.0 29.919 0.00 28 0.000
2/26/24 8:00a 41.3 78 35.0 1.0 SSE 2.0 41.3 29.917 0.00 34 0.000
2/26/24 7:55a 41.0 77 34.3 1.0 SSE 2.0 41.0 29.917 0.00 25 0.000
2/26/24 7:50a 41.1 76 34.1 1.0 SSE 2.0 41.1 29.918 0.00 19 0.000
2/26/24 7:45a 41.2 76 34.2 1.0 SSE 2.0 41.2 29.917 0.00 17 0.000
2/26/24 7:40a 41.4 76 34.4 1.0 SSE 2.0 41.4 29.917 0.00 13 0.000
2/26/24 7:35a 41.5 76 34.5 0.0 SSE 1.0 41.5 29.917 0.00 11 0.000
2/26/24 7:30a 41.5 76 34.5 0.0 SSE 2.0 41.5 29.917 0.00 7 0.000
2/26/24 7:25a 41.5 76 34.5 1.0 SSE 1.0 41.5 29.918 0.00 4 0.000
2/26/24 7:20a 41.5 75 34.2 0.0 --- 0.0 41.5 29.917 0.00 0 0.000
2/26/24 7:15a 41.7 75 34.4 0.0 SSE 1.0 41.7 29.916 0.00 0 0.000
2/26/24 7:10a 41.6 75 34.3 0.0 SSE 1.0 41.6 29.917 0.00 0 0.000
2/26/24 7:05a 41.6 74 33.9 0.0 --- 0.0 41.6 29.917 0.00 0 0.000
2/26/24 7:00a 41.8 74 34.1 0.0 --- 0.0 41.8 29.918 0.00 0 0.001
2/26/24 6:55a 42.0 74 34.3 0.0 SSE 1.0 42.0 29.916 0.00 0 0.000
2/26/24 6:50a 42.2 73 34.2 0.0 --- 0.0 42.2 29.916 0.00 0 0.000
2/26/24 6:45a 42.3 73 34.3 0.0 SSE 1.0 42.3 29.913 0.00 0 0.000
2/26/24 6:40a 42.4 73 34.4 0.0 SSE 1.0 42.4 29.913 0.00 0 0.000
2/26/24 6:35a 42.5 73 34.5 0.0 --- 0.0 42.5 29.913 0.00 0 0.000
2/26/24 6:30a 42.5 72 34.1 0.0 --- 0.0 42.5 29.911 0.00 0 0.000
2/26/24 6:25a 42.7 72 34.3 0.0 SSE 1.0 42.7 29.912 0.00 0 0.000
2/26/24 6:20a 42.8 72 34.4 0.0 SSE 1.0 42.8 29.912 0.00 0 0.000
2/26/24 6:15a 42.9 72 34.5 0.0 --- 0.0 42.9 29.911 0.00 0 0.000
2/26/24 6:10a 43.0 72 34.6 0.0 --- 0.0 43.0 29.911 0.00 0 0.000
2/26/24 6:05a 43.1 72 34.7 0.0 --- 0.0 43.1 29.911 0.00 0 0.000
2/26/24 6:00a 43.2 71 34.4 0.0 SSE 1.0 43.2 29.910 0.00 0 0.001
2/26/24 5:55a 43.4 71 34.6 0.0 --- 0.0 43.4 29.909 0.00 0 0.000
2/26/24 5:50a 43.6 71 34.8 0.0 --- 0.0 43.6 29.909 0.00 0 0.000
2/26/24 5:45a 43.7 70 34.6 0.0 --- 0.0 43.7 29.910 0.00 0 0.000
2/26/24 5:40a 44.0 70 34.8 0.0 SSE 1.0 44.0 29.908 0.00 0 0.000
2/26/24 5:35a 44.2 69 34.7 0.0 SSE 1.0 44.2 29.910 0.00 0 0.000
2/26/24 5:30a 44.5 69 35.0 0.0 SSE 1.0 44.5 29.908 0.00 0 0.000
2/26/24 5:25a 44.6 69 35.1 0.0 SSE 1.0 44.6 29.907 0.00 0 0.000
2/26/24 5:20a 44.6 69 35.1 0.0 SSE 1.0 44.6 29.906 0.00 0 0.000
2/26/24 5:15a 44.7 68 34.8 0.0 SSE 1.0 44.7 29.907 0.00 0 0.000
2/26/24 5:10a 44.8 68 34.9 1.0 SSE 2.0 44.8 29.909 0.00 0 0.000
2/26/24 5:05a 44.7 68 34.8 1.0 SSE 2.0 44.7 29.910 0.00 0 0.000
2/26/24 5:00a 44.7 68 34.8 1.0 SSE 2.0 44.7 29.909 0.00 0 0.001
2/26/24 4:55a 44.6 68 34.7 1.0 SSE 2.0 44.6 29.909 0.00 0 0.000
2/26/24 4:50a 44.6 68 34.7 1.0 SSE 2.0 44.6 29.910 0.00 0 0.000
2/26/24 4:45a 44.6 68 34.7 1.0 SSE 4.0 44.6 29.910 0.00 0 0.000
2/26/24 4:40a 44.7 68 34.8 0.0 SSE 2.0 44.7 29.909 0.00 0 0.000
2/26/24 4:35a 44.6 68 34.7 1.0 SSE 4.0 44.6 29.909 0.00 0 0.000
2/26/24 4:30a 44.6 67 34.3 1.0 SSE 2.0 44.6 29.911 0.00 0 0.000
2/26/24 4:25a 44.5 67 34.2 0.0 SSE 2.0 44.5 29.912 0.00 0 0.000
2/26/24 4:20a 44.5 67 34.2 1.0 SSE 2.0 44.5 29.911 0.00 0 0.000
2/26/24 4:15a 44.5 67 34.2 1.0 SSE 2.0 44.5 29.914 0.00 0 0.000
2/26/24 4:10a 44.6 67 34.3 1.0 SSE 2.0 44.6 29.913 0.00 0 0.000
2/26/24 4:05a 44.7 67 34.4 1.0 SSE 4.0 44.7 29.914 0.00 0 0.000
2/26/24 4:00a 44.7 67 34.4 2.0 SSE 4.0 44.7 29.917 0.00 0 0.001
2/26/24 3:55a 44.9 66 34.2 2.0 S 4.0 44.9 29.918 0.00 0 0.000
2/26/24 3:50a 45.0 66 34.3 2.0 S 5.0 45.0 29.919 0.00 0 0.000
2/26/24 3:45a 45.0 66 34.3 2.0 S 5.0 45.0 29.918 0.00 0 0.000
2/26/24 3:40a 45.1 66 34.4 2.0 S 4.0 45.1 29.916 0.00 0 0.000
2/26/24 3:35a 45.1 66 34.4 2.0 SSE 5.0 45.1 29.914 0.00 0 0.000
2/26/24 3:30a 45.3 65 34.2 3.0 SSE 5.0 44.4 29.915 0.00 0 0.000
2/26/24 3:25a 45.4 65 34.3 2.0 S 5.0 45.4 29.916 0.00 0 0.000
2/26/24 3:20a 45.6 65 34.5 2.0 SSE 5.0 45.6 29.916 0.00 0 0.000
2/26/24 3:15a 45.6 65 34.5 3.0 SSE 6.0 44.7 29.919 0.00 0 0.000
2/26/24 3:10a 45.5 65 34.4 3.0 S 5.0 44.6 29.919 0.00 0 0.000
2/26/24 3:05a 45.5 65 34.4 3.0 SSE 6.0 44.6 29.919 0.00 0 0.000
2/26/24 3:00a 45.5 65 34.4 2.0 SSE 5.0 45.5 29.920 0.00 0 0.001
2/26/24 2:55a 45.6 64 34.1 3.0 SSE 6.0 44.7 29.923 0.00 0 0.000
2/26/24 2:50a 45.4 64 33.9 3.0 SSE 6.0 44.5 29.925 0.00 0 0.000
2/26/24 2:45a 45.4 64 33.9 3.0 SSE 5.0 44.5 29.926 0.00 0 0.000
2/26/24 2:40a 45.4 64 33.9 4.0 S 8.0 43.5 29.926 0.00 0 0.000
2/26/24 2:35a 45.3 64 33.8 4.0 SSE 8.0 43.4 29.926 0.00 0 0.000
2/26/24 2:30a 45.4 64 33.9 3.0 SSE 6.0 44.5 29.928 0.00 0 0.000
2/26/24 2:25a 45.5 63 33.6 3.0 SSE 5.0 44.6 29.930 0.00 0 0.000
2/26/24 2:20a 45.6 63 33.7 2.0 SSE 6.0 45.6 29.933 0.00 0 0.000
2/26/24 2:15a 45.7 63 33.8 3.0 S 6.0 44.8 29.934 0.00 0 0.000
2/26/24 2:10a 45.8 63 33.9 3.0 S 5.0 45.0 29.935 0.00 0 0.000
2/26/24 2:05a 45.9 62 33.6 4.0 SSE 7.0 44.1 29.936 0.00 0 0.000
2/26/24 2:00a 46.1 62 33.8 4.0 SSE 6.0 44.3 29.938 0.00 0 0.002
2/26/24 1:55a 46.1 62 33.8 3.0 SSE 6.0 45.3 29.937 0.00 0 0.000
2/26/24 1:50a 46.3 61 33.6 3.0 S 6.0 45.5 29.937 0.00 0 0.000
2/26/24 1:45a 46.4 61 33.7 3.0 S 7.0 45.6 29.938 0.00 0 0.000
2/26/24 1:40a 46.7 60 33.5 3.0 SSE 9.0 46.0 29.935 0.00 0 0.000
2/26/24 1:35a 47.0 60 33.8 4.0 S 6.0 45.4 29.936 0.00 0 0.000
2/26/24 1:30a 47.2 59 33.6 4.0 S 6.0 45.6 29.934 0.00 0 0.000
2/26/24 1:25a 47.4 59 33.8 3.0 SSE 7.0 46.7 29.933 0.00 0 0.000
2/26/24 1:20a 47.5 59 33.9 4.0 S 7.0 46.0 29.933 0.00 0 0.000
2/26/24 1:15a 47.5 59 33.9 4.0 S 12.0 46.0 29.931 0.00 0 0.000
2/26/24 1:10a 47.6 58 33.5 4.0 S 8.0 46.1 29.930 0.00 0 0.000
2/26/24 1:05a 47.6 58 33.5 4.0 SSE 7.0 46.1 29.931 0.00 0 0.000
2/26/24 1:00a 47.7 58 33.6 3.0 SSE 7.0 47.1 29.930 0.00 0 0.002
2/26/24 12:55a 47.8 58 33.7 4.0 S 7.0 46.4 29.929 0.00 0 0.000
2/26/24 12:50a 47.8 58 33.7 4.0 SSE 7.0 46.4 29.929 0.00 0 0.000
2/26/24 12:45a 47.8 58 33.7 4.0 SSE 6.0 46.4 29.929 0.00 0 0.000
2/26/24 12:40a 47.8 57 33.3 3.0 SSE 5.0 47.2 29.933 0.00 0 0.000
2/26/24 12:35a 47.9 58 33.8 3.0 SSE 5.0 47.3 29.934 0.00 0 0.000
2/26/24 12:30a 47.8 58 33.7 3.0 SSE 5.0 47.2 29.935 0.00 0 0.000
2/26/24 12:25a 47.7 57 33.2 3.0 SSE 7.0 47.1 29.934 0.00 0 0.000
2/26/24 12:20a 47.7 57 33.2 3.0 SSE 5.0 47.1 29.936 0.00 0 0.000
2/26/24 12:15a 47.7 57 33.2 2.0 S 5.0 47.7 29.940 0.00 0 0.000
2/26/24 12:10a 47.9 57 33.4 2.0 SSE 5.0 47.9 29.941 0.00 0 0.000
2/26/24 12:05a 48.1 56 33.1 2.0 S 5.0 48.1 29.940 0.00 0 0.000
2/26/24 12:00a 48.2 56 33.2 2.0 S 3.0 48.2 29.941 0.00 0 0.002

15,960 Views